createdAt,value
2023-01-21T00:00:56.725Z,5.47
2023-01-21T00:03:23.658Z,5.07
2023-01-21T00:05:50.413Z,5.20
2023-01-21T00:08:17.135Z,5.23
2023-01-21T00:10:44.154Z,5.37
2023-01-21T00:13:10.801Z,5.43
2023-01-21T00:15:37.565Z,5.33
2023-01-21T00:18:04.283Z,5.27
2023-01-21T00:20:30.935Z,5.30
2023-01-21T00:22:57.611Z,5.20
2023-01-21T00:25:24.261Z,5.13
2023-01-21T00:27:51.004Z,5.10
2023-01-21T00:30:18.059Z,4.90
2023-01-21T00:32:44.964Z,5.33
2023-01-21T00:35:12.001Z,5.00
2023-01-21T00:37:38.615Z,4.57
2023-01-21T00:40:06.364Z,4.70
2023-01-21T00:42:33.056Z,4.83
2023-01-21T00:45:00.083Z,4.70
2023-01-21T00:47:27.019Z,4.73
2023-01-21T00:49:53.709Z,4.63
2023-01-21T00:52:20.330Z,4.77
2023-01-21T00:54:47.149Z,4.60
2023-01-21T00:57:13.897Z,4.07
2023-01-21T00:59:40.857Z,4.97
2023-01-21T01:02:08.058Z,4.63
2023-01-21T01:04:34.723Z,4.57
2023-01-21T01:07:01.334Z,4.33
2023-01-21T01:09:28.026Z,4.77
2023-01-21T01:11:54.651Z,4.90
2023-01-21T01:14:22.189Z,4.83
2023-01-21T01:16:49.740Z,4.73
2023-01-21T01:19:16.838Z,4.67
2023-01-21T01:21:43.521Z,4.90
2023-01-21T01:24:10.173Z,4.93
2023-01-21T01:26:36.871Z,5.17
2023-01-21T01:29:04.514Z,5.43
2023-01-21T01:31:31.221Z,5.13
2023-01-21T01:33:57.915Z,4.77
2023-01-21T01:36:24.874Z,5.13
2023-01-21T01:38:52.516Z,5.10
2023-01-21T01:41:22.380Z,5.03
2023-01-21T01:43:51.111Z,5.40
2023-01-21T01:46:17.867Z,5.30
2023-01-21T01:48:47.971Z,5.30
2023-01-21T01:51:18.953Z,5.13
2023-01-21T01:53:46.848Z,5.30
2023-01-21T01:56:13.502Z,5.17
2023-01-21T01:58:40.357Z,5.53
2023-01-21T02:01:07.110Z,5.00
2023-01-21T02:03:45.515Z,5.43
2023-01-21T02:06:17.109Z,5.40
2023-01-21T02:08:46.118Z,5.47
2023-01-21T02:11:18.191Z,5.40
2023-01-21T02:13:53.277Z,5.17
2023-01-21T02:16:40.807Z,5.57
2023-01-21T02:19:25.476Z,5.63
2023-01-21T02:22:16.387Z,5.57
2023-01-21T02:24:45.772Z,5.10
2023-01-21T02:27:39.933Z,5.53
2023-01-21T02:30:21.405Z,5.33
2023-01-21T02:33:13.592Z,5.50
2023-01-21T02:35:51.535Z,5.83
2023-01-21T02:38:24.371Z,5.50
2023-01-21T02:41:12.566Z,5.40
2023-01-21T02:44:05.221Z,5.73
2023-01-21T02:46:44.947Z,6.27
2023-01-21T02:49:37.634Z,6.23
2023-01-21T02:52:04.272Z,6.03
2023-01-21T02:54:39.833Z,5.60
2023-01-21T02:57:15.019Z,5.70
2023-01-21T02:59:45.354Z,5.17
2023-01-21T03:02:37.807Z,5.47
2023-01-21T03:05:44.314Z,5.70
2023-01-21T03:08:21.930Z,5.73
2023-01-21T03:11:05.708Z,5.60
2023-01-21T03:14:00.161Z,5.73
2023-01-21T03:16:51.833Z,6.20
2023-01-21T03:19:19.606Z,5.63
2023-01-21T03:21:47.344Z,6.47
2023-01-21T03:24:14.848Z,5.70
2023-01-21T03:26:45.859Z,5.73
2023-01-21T03:29:19.536Z,6.13
2023-01-21T03:31:49.064Z,5.90
2023-01-21T03:34:17.069Z,5.47
2023-01-21T03:36:53.899Z,5.57
2023-01-21T03:39:33.427Z,5.90
2023-01-21T03:42:00.972Z,5.90
2023-01-21T03:44:27.716Z,5.77
2023-01-21T03:47:18.764Z,5.60
2023-01-21T03:49:54.366Z,5.87
2023-01-21T03:52:22.383Z,5.50
2023-01-21T03:54:49.247Z,5.63
2023-01-21T03:57:16.129Z,5.83
2023-01-21T03:59:43.008Z,5.77
2023-01-21T04:02:10.247Z,5.60
2023-01-21T04:04:37.115Z,5.40
2023-01-21T04:07:03.959Z,5.33
2023-01-21T04:09:30.805Z,5.70
2023-01-21T04:11:58.429Z,5.67
2023-01-21T04:14:25.353Z,5.43
2023-01-21T04:16:52.113Z,5.60
2023-01-21T04:19:18.814Z,5.40
2023-01-21T04:21:45.593Z,6.13
2023-01-21T04:24:12.341Z,5.67
2023-01-21T04:26:39.022Z,5.83
2023-01-21T04:29:05.721Z,5.43
2023-01-21T04:31:32.396Z,5.57
2023-01-21T04:33:59.215Z,5.70
2023-01-21T04:36:25.947Z,5.90
2023-01-21T04:38:52.590Z,5.80
2023-01-21T04:41:19.260Z,5.63
2023-01-21T04:43:45.924Z,5.50
2023-01-21T04:46:12.698Z,5.30
2023-01-21T04:48:39.372Z,5.63
2023-01-21T04:51:06.567Z,5.67
2023-01-21T04:53:33.342Z,5.40
2023-01-21T04:56:00.114Z,5.20
2023-01-21T04:58:27.461Z,5.40
2023-01-21T05:00:55.362Z,5.60
2023-01-21T05:03:22.133Z,5.77
2023-01-21T05:05:48.928Z,5.63
2023-01-21T05:08:15.634Z,5.90
2023-01-21T05:10:42.339Z,5.60
2023-01-21T05:13:09.033Z,6.00
2023-01-21T05:15:35.743Z,5.83
2023-01-21T05:18:02.428Z,5.93
2023-01-21T05:20:29.271Z,6.10
2023-01-21T05:22:55.983Z,6.00
2023-01-21T05:25:22.702Z,5.77
2023-01-21T05:27:53.480Z,5.47
2023-01-21T05:30:20.490Z,5.83
2023-01-21T05:32:53.957Z,5.70
2023-01-21T05:35:21.993Z,5.60
2023-01-21T05:37:48.664Z,6.00
2023-01-21T05:40:16.555Z,5.63
2023-01-21T05:42:43.861Z,5.90
2023-01-21T05:45:14.068Z,5.77
2023-01-21T05:47:40.832Z,5.60
2023-01-21T05:50:08.244Z,5.67
2023-01-21T05:52:35.148Z,5.70
2023-01-21T05:55:02.985Z,5.47
2023-01-21T05:57:30.726Z,5.67
2023-01-21T05:59:57.676Z,5.63
2023-01-21T06:02:25.042Z,5.97
2023-01-21T06:04:51.912Z,5.60
2023-01-21T06:07:18.575Z,5.93
2023-01-21T06:09:45.645Z,5.80
2023-01-21T06:12:12.319Z,6.03
2023-01-21T06:14:38.960Z,6.37
2023-01-21T06:17:05.621Z,6.23
2023-01-21T06:19:32.252Z,6.07
2023-01-21T06:21:58.894Z,6.70
2023-01-21T06:24:25.645Z,6.37
2023-01-21T06:26:53.277Z,7.03
2023-01-21T06:29:19.931Z,6.37
2023-01-21T06:31:46.787Z,6.70
2023-01-21T06:34:13.724Z,6.27
2023-01-21T06:36:43.223Z,6.87
2023-01-21T06:39:10.836Z,7.63
2023-01-21T06:41:38.002Z,7.57
2023-01-21T06:44:05.011Z,6.90
2023-01-21T06:46:32.307Z,7.63
2023-01-21T06:48:59.321Z,7.13
2023-01-21T06:51:26.027Z,7.20
2023-01-21T06:53:52.836Z,7.60
2023-01-21T06:56:20.421Z,7.80
2023-01-21T06:58:47.143Z,7.40
2023-01-21T07:01:14.106Z,8.13
2023-01-21T07:03:40.790Z,7.93
2023-01-21T07:06:07.778Z,7.80
2023-01-21T07:08:34.446Z,8.47
2023-01-21T07:11:01.272Z,8.60
2023-01-21T07:13:27.934Z,8.27
2023-01-21T07:15:59.998Z,8.73
2023-01-21T07:18:26.710Z,8.37
2023-01-21T07:20:53.443Z,8.20
2023-01-21T07:23:20.146Z,8.77
2023-01-21T07:25:47.019Z,9.13
2023-01-21T07:28:13.854Z,8.73
2023-01-21T07:30:40.839Z,8.67
2023-01-21T07:33:08.831Z,8.53
2023-01-21T07:35:35.750Z,8.60
2023-01-21T07:38:02.605Z,8.50
2023-01-21T07:40:29.492Z,8.23
2023-01-21T07:42:56.364Z,8.60
2023-01-21T07:45:23.623Z,9.50
2023-01-21T07:47:50.466Z,9.27
2023-01-21T07:50:17.418Z,8.67
2023-01-21T07:52:44.065Z,7.83
2023-01-21T07:55:12.620Z,7.90
2023-01-21T07:57:39.666Z,8.83
2023-01-21T08:00:07.570Z,8.53
2023-01-21T08:02:34.421Z,8.40
2023-01-21T08:05:01.175Z,7.63
2023-01-21T08:07:27.847Z,8.17
2023-01-21T08:09:54.564Z,8.80
2023-01-21T08:12:21.233Z,8.33
2023-01-21T08:14:47.894Z,7.73
2023-01-21T08:17:14.691Z,7.63
2023-01-21T08:19:41.439Z,8.40
2023-01-21T08:22:08.149Z,8.00
2023-01-21T08:24:34.889Z,7.90
2023-01-21T08:27:01.593Z,8.73
2023-01-21T08:29:28.555Z,7.77
2023-01-21T08:31:55.294Z,8.27
2023-01-21T08:34:22.087Z,7.73
2023-01-21T08:36:48.741Z,8.50
2023-01-21T08:39:16.496Z,7.80
2023-01-21T08:41:44.657Z,7.90
2023-01-21T08:44:11.643Z,8.67
2023-01-21T08:46:38.326Z,7.97
2023-01-21T08:49:05.230Z,8.33
2023-01-21T08:51:31.964Z,7.40
2023-01-21T08:53:58.720Z,7.97
2023-01-21T08:56:25.519Z,8.07
2023-01-21T08:58:56.162Z,8.13
2023-01-21T09:01:24.552Z,7.40
2023-01-21T09:04:00.957Z,7.80
2023-01-21T09:06:29.708Z,7.50
2023-01-21T09:08:56.862Z,8.03
2023-01-21T09:11:23.750Z,8.27
2023-01-21T09:13:50.633Z,7.37
2023-01-21T09:16:22.502Z,7.00
2023-01-21T09:18:49.497Z,7.17
2023-01-21T09:21:16.230Z,7.30
2023-01-21T09:23:43.086Z,7.57
2023-01-21T09:26:20.916Z,7.67
2023-01-21T09:28:52.668Z,7.43
2023-01-21T09:31:21.617Z,7.70
2023-01-21T09:33:51.251Z,8.03
2023-01-21T09:36:20.895Z,7.87
2023-01-21T09:38:49.302Z,7.57
2023-01-21T09:41:24.120Z,7.80
2023-01-21T09:44:25.790Z,7.23
2023-01-21T09:46:58.719Z,7.23
2023-01-21T09:49:29.103Z,6.87
2023-01-21T09:52:03.210Z,7.40
2023-01-21T09:54:34.128Z,7.63
2023-01-21T09:57:18.886Z,7.10
2023-01-21T10:00:05.508Z,7.53
2023-01-21T10:02:57.355Z,7.93
2023-01-21T10:05:39.393Z,7.67
2023-01-21T10:08:29.410Z,7.27
2023-01-21T10:11:35.615Z,7.23
2023-01-21T10:14:16.212Z,7.50
2023-01-21T10:16:55.811Z,7.47
2023-01-21T10:19:46.919Z,7.30
2023-01-21T10:22:17.765Z,6.80
2023-01-21T10:25:00.939Z,7.30
2023-01-21T10:27:29.667Z,7.50
2023-01-21T10:30:03.265Z,7.77
2023-01-21T10:32:29.900Z,7.17
2023-01-21T10:34:57.713Z,7.67
2023-01-21T10:37:33.014Z,7.90
2023-01-21T10:40:44.008Z,8.17
2023-01-21T10:43:29.616Z,7.37
2023-01-21T10:46:07.095Z,6.93
2023-01-21T10:48:52.693Z,8.03
2023-01-21T10:51:27.546Z,7.87
2023-01-21T10:54:22.316Z,8.20
2023-01-21T10:56:56.183Z,8.10
2023-01-21T10:59:26.824Z,7.77
2023-01-21T11:02:08.757Z,7.93
2023-01-21T11:04:37.379Z,7.70
2023-01-21T11:07:06.074Z,7.97
2023-01-21T11:09:37.376Z,7.60
2023-01-21T11:12:04.821Z,8.20
2023-01-21T11:14:31.626Z,7.83
2023-01-21T11:16:58.594Z,7.90
2023-01-21T11:19:32.308Z,7.73
2023-01-21T11:22:16.986Z,8.10
2023-01-21T11:24:46.252Z,7.20
2023-01-21T11:27:22.017Z,7.60
2023-01-21T11:29:50.743Z,7.43
2023-01-21T11:32:22.320Z,7.40
2023-01-21T11:34:51.054Z,7.77
2023-01-21T11:37:28.827Z,7.57
2023-01-21T11:40:01.214Z,7.43
2023-01-21T11:42:28.206Z,7.87
2023-01-21T11:45:06.971Z,7.47
2023-01-21T11:47:48.355Z,7.67
2023-01-21T11:50:18.839Z,7.83
2023-01-21T11:52:45.889Z,7.57
2023-01-21T11:55:24.165Z,7.00
2023-01-21T11:57:55.608Z,7.10
2023-01-21T12:00:27.455Z,7.30
2023-01-21T12:02:58.836Z,8.07
2023-01-21T12:05:34.907Z,7.73
2023-01-21T12:08:03.800Z,7.70
2023-01-21T12:10:33.440Z,7.20
2023-01-21T12:13:12.335Z,8.40
2023-01-21T12:16:03.617Z,7.60
2023-01-21T12:18:30.435Z,7.60
2023-01-21T12:21:50.372Z,7.30
2023-01-21T12:24:26.279Z,7.37
2023-01-21T12:27:04.897Z,7.00
2023-01-21T12:29:50.628Z,7.33
2023-01-21T12:32:39.428Z,7.50
2023-01-21T12:35:33.131Z,7.13
2023-01-21T12:38:10.415Z,7.37
2023-01-21T12:40:52.183Z,8.23
2023-01-21T12:43:21.203Z,7.90
2023-01-21T12:46:01.459Z,7.40
2023-01-21T12:48:35.547Z,7.47
2023-01-21T12:51:18.843Z,7.13
2023-01-21T12:53:58.969Z,7.40
2023-01-21T12:56:32.097Z,7.40
2023-01-21T12:59:23.730Z,8.07
2023-01-21T13:02:05.722Z,6.97
2023-01-21T13:04:51.376Z,7.33
2023-01-21T13:07:36.417Z,7.10
2023-01-21T13:10:15.075Z,7.73
2023-01-21T13:12:44.930Z,6.93
2023-01-21T13:15:16.391Z,6.63
2023-01-21T13:17:45.077Z,6.80
2023-01-21T13:20:30.422Z,7.27
2023-01-21T13:23:29.875Z,6.83
2023-01-21T13:25:58.691Z,7.00
2023-01-21T13:28:28.374Z,6.63
2023-01-21T13:31:16.634Z,7.27
2023-01-21T13:33:55.734Z,7.83
2023-01-21T13:36:32.309Z,7.67
2023-01-21T13:39:23.327Z,7.50
2023-01-21T13:41:55.845Z,6.80
2023-01-21T13:44:28.486Z,7.23
2023-01-21T13:47:13.199Z,7.07
2023-01-21T13:49:49.067Z,6.80
2023-01-21T13:52:45.011Z,6.93
2023-01-21T13:55:23.550Z,7.13
2023-01-21T13:58:10.390Z,7.00
2023-01-21T14:00:43.296Z,7.20
2023-01-21T14:03:38.111Z,6.70
2023-01-21T14:06:10.075Z,7.03
2023-01-21T14:08:44.709Z,6.40
2023-01-21T14:11:17.771Z,6.90
2023-01-21T14:14:05.717Z,6.80
2023-01-21T14:17:03.211Z,6.53
2023-01-21T14:19:51.912Z,6.40
2023-01-21T14:22:44.159Z,7.00
2023-01-21T14:25:18.898Z,7.30
2023-01-21T14:27:46.376Z,6.73
2023-01-21T14:30:23.287Z,6.87
2023-01-21T14:32:59.986Z,6.77
2023-01-21T14:35:52.899Z,7.10
2023-01-21T14:38:51.397Z,7.33
2023-01-21T14:41:18.180Z,6.50
2023-01-21T14:43:46.490Z,6.77
2023-01-21T14:46:33.953Z,6.47
2023-01-21T14:49:07.982Z,7.00
2023-01-21T14:51:48.886Z,6.47
2023-01-21T14:54:17.687Z,6.63
2023-01-21T14:57:13.750Z,6.37
2023-01-21T14:59:46.619Z,6.50
2023-01-21T15:02:30.835Z,6.73
2023-01-21T15:05:00.687Z,6.70
2023-01-21T15:07:50.143Z,6.63
2023-01-21T15:10:31.768Z,6.27
2023-01-21T15:13:06.380Z,6.77
2023-01-21T15:15:42.575Z,6.40
2023-01-21T15:18:12.997Z,6.57
2023-01-21T15:20:43.308Z,5.90
2023-01-21T15:23:31.011Z,6.30
2023-01-21T15:26:12.753Z,6.30
2023-01-21T15:28:55.787Z,6.17
2023-01-21T15:31:23.611Z,5.87
2023-01-21T15:34:04.328Z,6.00
2023-01-21T15:36:42.064Z,6.50
2023-01-21T15:39:11.708Z,5.97
2023-01-21T15:42:03.173Z,6.00
2023-01-21T15:45:05.656Z,6.13
2023-01-21T15:47:57.312Z,5.63
2023-01-21T15:50:35.144Z,6.13
2023-01-21T15:53:33.816Z,5.67
2023-01-21T15:56:34.772Z,5.47
2023-01-21T15:59:01.361Z,5.50
2023-01-21T16:01:37.088Z,5.60
2023-01-21T16:04:27.062Z,5.40
2023-01-21T16:07:40.003Z,5.43
2023-01-21T16:10:22.119Z,5.33
2023-01-21T16:13:09.716Z,5.03
2023-01-21T16:16:09.886Z,5.43
2023-01-21T16:18:53.759Z,5.20
2023-01-21T16:21:23.660Z,5.27
2023-01-21T16:23:52.864Z,5.30
2023-01-21T16:26:27.218Z,4.90
2023-01-21T16:28:54.706Z,4.93
2023-01-21T16:31:21.777Z,5.37
2023-01-21T16:33:49.008Z,4.87
2023-01-21T16:36:15.812Z,4.80
2023-01-21T16:38:44.760Z,4.53
2023-01-21T16:41:11.387Z,4.40
2023-01-21T16:44:04.460Z,4.77
2023-01-21T16:46:37.461Z,4.70
2023-01-21T16:49:12.399Z,4.80
2023-01-21T16:51:41.390Z,4.40
2023-01-21T16:54:20.327Z,4.40
2023-01-21T16:56:52.865Z,4.57
2023-01-21T16:59:44.869Z,4.80
2023-01-21T17:02:22.505Z,4.93
2023-01-21T17:04:49.367Z,4.90
2023-01-21T17:07:21.508Z,4.70
2023-01-21T17:10:02.211Z,4.43
2023-01-21T17:12:29.747Z,4.40
2023-01-21T17:14:59.489Z,4.90
2023-01-21T17:17:30.205Z,4.60
2023-01-21T17:19:57.325Z,4.57
2023-01-21T17:22:26.567Z,4.57
2023-01-21T17:25:22.526Z,4.53
2023-01-21T17:27:49.578Z,4.30
2023-01-21T17:30:17.996Z,4.37
2023-01-21T17:32:53.142Z,4.70
2023-01-21T17:35:23.165Z,4.53
2023-01-21T17:37:56.430Z,4.70
2023-01-21T17:40:27.744Z,4.70
2023-01-21T17:42:54.689Z,4.80
2023-01-21T17:45:35.610Z,4.53
2023-01-21T17:48:14.048Z,4.30
2023-01-21T17:50:46.268Z,4.47
2023-01-21T17:53:24.822Z,4.60
2023-01-21T17:56:29.013Z,4.70
2023-01-21T17:58:56.052Z,4.83
2023-01-21T18:01:22.921Z,4.40
2023-01-21T18:03:49.618Z,4.50
2023-01-21T18:06:19.797Z,4.60
2023-01-21T18:08:46.452Z,4.93
2023-01-21T18:11:16.323Z,4.60
2023-01-21T18:13:43.369Z,4.20
2023-01-21T18:16:10.798Z,4.93
2023-01-21T18:18:38.145Z,4.60
2023-01-21T18:21:05.477Z,5.27
2023-01-21T18:23:32.256Z,4.83
2023-01-21T18:25:59.005Z,4.53
2023-01-21T18:28:28.358Z,4.60
2023-01-21T18:30:56.837Z,4.43
2023-01-21T18:33:24.135Z,4.30
2023-01-21T18:35:52.065Z,4.47
2023-01-21T18:38:28.509Z,4.70
2023-01-21T18:40:58.241Z,4.80
2023-01-21T18:43:25.517Z,4.67
2023-01-21T18:45:54.299Z,4.53
2023-01-21T18:48:27.492Z,4.70
2023-01-21T18:50:54.422Z,4.77
2023-01-21T18:53:21.233Z,4.47
2023-01-21T18:55:49.677Z,4.50
2023-01-21T18:58:17.092Z,4.93
2023-01-21T19:00:43.860Z,4.57
2023-01-21T19:03:13.977Z,4.97
2023-01-21T19:05:42.955Z,4.93
2023-01-21T19:08:15.834Z,5.00
2023-01-21T19:10:42.512Z,4.73
2023-01-21T19:13:12.451Z,4.87
2023-01-21T19:15:39.168Z,5.50
2023-01-21T19:18:11.243Z,5.33
2023-01-21T19:20:41.360Z,5.20
2023-01-21T19:23:16.183Z,4.97
2023-01-21T19:25:51.267Z,5.20
2023-01-21T19:28:18.163Z,5.60
2023-01-21T19:30:46.008Z,5.17
2023-01-21T19:33:12.877Z,5.07
2023-01-21T19:35:43.682Z,4.77
2023-01-21T19:38:12.423Z,5.40
2023-01-21T19:40:39.169Z,5.00
2023-01-21T19:43:06.078Z,5.20
2023-01-21T19:45:32.773Z,5.53
2023-01-21T19:47:59.441Z,5.50
2023-01-21T19:50:27.616Z,5.10
2023-01-21T19:52:54.704Z,5.93
2023-01-21T19:55:25.667Z,5.57
2023-01-21T19:58:01.318Z,5.73
2023-01-21T20:00:35.352Z,5.33
2023-01-21T20:03:02.262Z,5.83
2023-01-21T20:05:33.613Z,5.70
2023-01-21T20:08:01.441Z,5.70
2023-01-21T20:10:29.933Z,6.33
2023-01-21T20:12:57.183Z,6.30
2023-01-21T20:15:29.113Z,6.10
2023-01-21T20:17:57.996Z,6.20
2023-01-21T20:20:27.428Z,6.30
2023-01-21T20:22:54.225Z,6.33
2023-01-21T20:25:45.423Z,5.97
2023-01-21T20:28:19.433Z,5.87
2023-01-21T20:30:47.299Z,6.47
2023-01-21T20:33:16.172Z,6.27
2023-01-21T20:35:44.360Z,6.20
2023-01-21T20:38:13.510Z,6.33
2023-01-21T20:40:40.697Z,6.23
2023-01-21T20:43:08.009Z,6.07
2023-01-21T20:45:39.952Z,6.27
2023-01-21T20:48:06.839Z,6.53
2023-01-21T20:50:35.516Z,6.03
2023-01-21T20:53:03.436Z,6.47
2023-01-21T20:55:30.775Z,5.97
2023-01-21T20:57:57.673Z,6.20
2023-01-21T21:00:27.682Z,6.30
2023-01-21T21:03:00.421Z,6.83
2023-01-21T21:05:28.400Z,6.60
2023-01-21T21:07:55.458Z,6.70
2023-01-21T21:10:23.266Z,6.67
2023-01-21T21:12:50.412Z,6.93
2023-01-21T21:15:17.861Z,6.07
2023-01-21T21:17:46.943Z,6.90
2023-01-21T21:20:25.724Z,6.50
2023-01-21T21:22:52.709Z,6.73
2023-01-21T21:25:21.651Z,6.77
2023-01-21T21:27:48.856Z,6.07
2023-01-21T21:30:27.660Z,6.33
2023-01-21T21:32:56.600Z,6.80
2023-01-21T21:35:26.304Z,6.83
2023-01-21T21:37:54.003Z,6.17
2023-01-21T21:40:22.619Z,6.30
2023-01-21T21:43:08.359Z,6.60
2023-01-21T21:45:40.880Z,7.17
2023-01-21T21:48:38.500Z,6.47
2023-01-21T21:51:13.879Z,7.17
2023-01-21T21:53:41.395Z,7.20
2023-01-21T21:56:16.533Z,6.70
2023-01-21T21:58:43.820Z,6.63
2023-01-21T22:01:14.827Z,7.17
2023-01-21T22:03:41.808Z,7.27
2023-01-21T22:06:09.600Z,7.27
2023-01-21T22:08:37.825Z,6.83
2023-01-21T22:11:06.881Z,6.90
2023-01-21T22:13:35.264Z,6.83
2023-01-21T22:16:02.567Z,6.97
2023-01-21T22:18:30.105Z,6.70
2023-01-21T22:21:04.166Z,6.40
2023-01-21T22:23:31.978Z,7.53
2023-01-21T22:26:00.717Z,7.03
2023-01-21T22:28:27.645Z,6.60
2023-01-21T22:30:54.781Z,6.20
2023-01-21T22:33:22.211Z,6.47
2023-01-21T22:35:48.943Z,6.80
2023-01-21T22:38:15.683Z,6.93
2023-01-21T22:40:42.334Z,7.17
2023-01-21T22:43:10.270Z,6.47
2023-01-21T22:45:36.961Z,7.20
2023-01-21T22:48:03.684Z,6.70
2023-01-21T22:50:30.343Z,6.60
2023-01-21T22:52:57.259Z,6.70
2023-01-21T22:55:23.965Z,6.80
2023-01-21T22:57:50.789Z,6.60
2023-01-21T23:00:35.740Z,6.50
2023-01-21T23:03:02.649Z,6.70
2023-01-21T23:05:29.500Z,6.20
2023-01-21T23:07:56.336Z,6.73
2023-01-21T23:10:23.129Z,5.90
2023-01-21T23:12:49.800Z,6.50
2023-01-21T23:15:16.702Z,6.03
2023-01-21T23:17:43.414Z,6.77
2023-01-21T23:20:10.639Z,6.20
2023-01-21T23:22:37.280Z,6.47
2023-01-21T23:25:04.144Z,6.37
2023-01-21T23:27:30.793Z,6.33
2023-01-21T23:29:57.572Z,6.23
2023-01-21T23:32:24.249Z,6.53
2023-01-21T23:34:51.045Z,6.00
2023-01-21T23:37:17.748Z,6.37
2023-01-21T23:39:44.445Z,6.40
2023-01-21T23:42:11.105Z,6.43
2023-01-21T23:44:37.823Z,6.77
2023-01-21T23:47:04.515Z,6.20
2023-01-21T23:49:31.982Z,6.07
2023-01-21T23:51:58.712Z,6.33
2023-01-21T23:54:25.384Z,5.83
2023-01-21T23:56:52.049Z,5.77
2023-01-21T23:59:19.025Z,6.13
